Karatsumaru — JD2907 — position and weather

sailwx.info

Track history (hours):
 
Tides and Currents Weather Stations Pressure Air Temp Water Temp Dewpoint Dewpoint Depression Visibility Wind Speed Wind Dir Waves Ship Positions

Karatsumaru

Last reported at 2017-Oct-20 01:31 UTC. Time now 2017-Oct-20 01:33 UTC.
Position N 35°28' E 139°41'.

Length 33 m; draft 3.6 m.

Type: Tug. MMSI: 431000942.

Date/timePositionNaut miles runAvg speedWind from/ knotsBaromVisibWave heightAir tempDewpointWater temp
2017-Oct-20 01:31N 35°28' E 139°41'0 0.0
2017-Oct-20 01:01N 35°28' E 139°41'0 0.0
2017-Oct-20 00:31N 35°28' E 139°41'2 4.1
2017-Oct-20 00:01N 35°26' E 139°42'2 4.0
2017-Oct-19 23:30N 35°24' E 139°41'0 0.2
2017-Oct-19 23:01N 35°24' E 139°41'1 1.5
2017-Oct-19 22:30N 35°23' E 139°41'1 2.4
2017-Oct-19 22:01N 35°22' E 139°41'4 8.2
2017-Oct-19 21:31N 35°26' E 139°42'2 3.8
2017-Oct-19 21:01N 35°27' E 139°39'0 0.0
2017-Oct-19 20:31N 35°27' E 139°39'0 0.0
2017-Oct-19 20:00N 35°27' E 139°39'0 0.0
2017-Oct-19 19:31N 35°27' E 139°39'0 0.0
2017-Oct-19 19:01N 35°27' E 139°39'0 0.0
2017-Oct-19 18:31N 35°27' E 139°39'0 0.0
2017-Oct-19 18:01N 35°27' E 139°39'0 0.0
2017-Oct-19 17:31N 35°27' E 139°39'0 0.0
2017-Oct-19 17:01N 35°27' E 139°39'0 0.0
2017-Oct-19 16:31N 35°27' E 139°39'0 0.0
2017-Oct-19 16:00N 35°27' E 139°39'0 0.0
2017-Oct-19 15:30N 35°27' E 139°39'0 0.0
2017-Oct-19 15:00N 35°27' E 139°39'0 0.0
2017-Oct-19 14:31N 35°27' E 139°39'0 0.0
2017-Oct-19 14:01N 35°27' E 139°39'0 0.0
2017-Oct-19 13:31N 35°27' E 139°39'0 0.0
2017-Oct-19 13:01N 35°27' E 139°39'0 0.0
2017-Oct-19 12:31N 35°27' E 139°39'0 0.0
2017-Oct-19 12:01N 35°27' E 139°39'0 0.0
2017-Oct-19 11:31N 35°27' E 139°39'0 0.0
2017-Oct-19 11:01N 35°27' E 139°39'0 0.0
2017-Oct-19 10:31N 35°27' E 139°39'0 0.0
2017-Oct-19 10:01N 35°27' E 139°39'0 0.0
2017-Oct-19 09:31N 35°27' E 139°39'0 0.0
2017-Oct-19 09:00N 35°27' E 139°39'0 0.0
2017-Oct-19 08:30N 35°27' E 139°39'0 0.0
2017-Oct-19 08:01N 35°27' E 139°39'0 0.0
2017-Oct-19 07:31N 35°27' E 139°39'0 0.0
2017-Oct-19 07:01N 35°27' E 139°39'0 0.0
2017-Oct-19 06:31N 35°27' E 139°39'0 0.0
2017-Oct-19 06:01N 35°27' E 139°39'0 0.0
2017-Oct-19 05:31N 35°27' E 139°39'0 0.0
2017-Oct-19 05:00N 35°27' E 139°39'0 0.0
2017-Oct-19 04:31N 35°27' E 139°39'0 0.0
2017-Oct-19 04:01N 35°27' E 139°39'0 0.1
2017-Oct-19 03:30N 35°27' E 139°39'0 0.0
2017-Oct-19 03:01N 35°27' E 139°39'1 2.7
2017-Oct-19 02:31N 35°27' E 139°41'2 3.7
2017-Oct-19 01:59N 35°28' E 139°43'0 0.0
2017-Oct-19 01:30N 35°28' E 139°43'0 0.0
2017-Oct-19 01:00N 35°28' E 139°43'0 0.6
2017-Oct-19 00:30N 35°27' E 139°43'2 4.3
2017-Oct-19 00:00N 35°26' E 139°45'2 3.5
2017-Oct-18 23:30N 35°27' E 139°43'3 5.9
2017-Oct-18 23:00N 35°27' E 139°39'0 0.0
2017-Oct-18 22:30N 35°27' E 139°39'0 0.0
2017-Oct-18 22:01N 35°27' E 139°39'0 0.0
2017-Oct-18 21:31N 35°27' E 139°39'0 0.0
2017-Oct-18 21:01N 35°27' E 139°39'0 0.0
2017-Oct-18 20:31N 35°27' E 139°39'0 0.0
2017-Oct-18 20:00N 35°27' E 139°39'0 0.0
2017-Oct-18 19:31N 35°27' E 139°39'0 0.0
2017-Oct-18 19:00N 35°27' E 139°39'0 0.0
2017-Oct-18 18:31N 35°27' E 139°39'0 0.0
2017-Oct-18 18:00N 35°27' E 139°39'0 0.0
2017-Oct-18 17:31N 35°27' E 139°39'0 0.0
2017-Oct-18 17:01N 35°27' E 139°39'0 0.0
2017-Oct-18 16:31N 35°27' E 139°39'0 0.0
2017-Oct-18 16:01N 35°27' E 139°39'0 0.0
2017-Oct-18 15:31N 35°27' E 139°39'0 0.0
2017-Oct-18 15:01N 35°27' E 139°39'0 0.0
2017-Oct-18 14:01N 35°27' E 139°39'0 0.0
2017-Oct-18 13:31N 35°27' E 139°39'0 0.0
2017-Oct-18 13:01N 35°27' E 139°39'0 0.0
2017-Oct-18 12:30N 35°27' E 139°39'0 0.0
2017-Oct-18 12:01N 35°27' E 139°39'0 0.0
2017-Oct-18 11:31N 35°27' E 139°39'0 0.0
2017-Oct-18 11:01N 35°27' E 139°39'0 0.0
2017-Oct-18 10:31N 35°27' E 139°39'0 0.0
2017-Oct-18 10:01N 35°27' E 139°39'0 0.0
2017-Oct-18 09:31N 35°27' E 139°39'0 0.0
2017-Oct-18 09:01N 35°27' E 139°39'0 0.0
2017-Oct-18 08:30N 35°27' E 139°39'0 0.0
2017-Oct-18 08:00N 35°27' E 139°39'0 0.0
2017-Oct-18 07:31N 35°27' E 139°39'0 0.0
2017-Oct-18 07:01N 35°27' E 139°39'0 0.0
2017-Oct-18 06:31N 35°27' E 139°39'0 0.0
2017-Oct-18 06:01N 35°27' E 139°39'0 0.0
2017-Oct-18 05:31N 35°27' E 139°39'0 0.0
2017-Oct-18 05:01N 35°27' E 139°39'0 0.0
2017-Oct-18 04:31N 35°27' E 139°39'1 2.1
2017-Oct-18 04:01N 35°28' E 139°40'0 0.0
2017-Oct-18 03:31N 35°28' E 139°40'0 0.0
2017-Oct-18 03:00N 35°28' E 139°40'0 0.0
2017-Oct-18 02:31N 35°28' E 139°40'0 0.0
2017-Oct-18 02:01N 35°28' E 139°40'0 0.0
2017-Oct-18 01:31N 35°28' E 139°40'0 0.0
2017-Oct-18 01:01N 35°28' E 139°40'0 0.0
2017-Oct-18 00:31N 35°28' E 139°40'0 0.0
2017-Oct-18 00:00N 35°28' E 139°40'0 0.1
2017-Oct-17 23:31N 35°28' E 139°40'4 8.6
2017-Oct-17 23:00N 35°29' E 139°46'2 4.7
2017-Oct-17 22:30N 35°31' E 139°46'2 4.5
2017-Oct-17 22:01N 35°30' E 139°44'4 8.3
2017-Oct-17 21:31N 35°27' E 139°40'0 0.4
2017-Oct-17 21:01N 35°27' E 139°39'0 0.0
2017-Oct-17 20:31N 35°27' E 139°39'0 0.0
2017-Oct-17 20:01N 35°27' E 139°39'0 0.0
2017-Oct-17 19:31N 35°27' E 139°39'0 0.0
2017-Oct-17 19:01N 35°27' E 139°39'0 0.0
2017-Oct-17 18:30N 35°27' E 139°39'0 0.0
2017-Oct-17 18:01N 35°27' E 139°39'0 0.0
2017-Oct-17 17:31N 35°27' E 139°39'0 0.0
2017-Oct-17 17:01N 35°27' E 139°39'0 0.0
2017-Oct-17 16:30N 35°27' E 139°39'0 0.0
2017-Oct-17 16:00N 35°27' E 139°39'0 0.0
2017-Oct-17 15:31N 35°27' E 139°39'0 0.0
2017-Oct-17 15:00N 35°27' E 139°39'0 0.0
2017-Oct-17 14:30N 35°27' E 139°39'0 0.0
2017-Oct-17 14:01N 35°27' E 139°39'0 0.0
2017-Oct-17 13:31N 35°27' E 139°39'0 0.0
2017-Oct-17 13:00N 35°27' E 139°39'0 0.0
2017-Oct-17 12:31N 35°27' E 139°39'0 0.0
2017-Oct-17 12:01N 35°27' E 139°39'0 0.0
2017-Oct-17 11:31N 35°27' E 139°39'0 0.0
2017-Oct-17 11:01N 35°27' E 139°39'0 0.0
2017-Oct-17 10:31N 35°27' E 139°39'0 0.0
2017-Oct-17 10:01N 35°27' E 139°39'0 0.0
2017-Oct-17 09:31N 35°27' E 139°39'0 0.0
2017-Oct-17 09:01N 35°27' E 139°39'0 0.0
2017-Oct-17 08:31N 35°27' E 139°39'0 0.0
2017-Oct-17 08:01N 35°27' E 139°39'0 0.0
2017-Oct-17 07:31N 35°27' E 139°39'0 0.0
2017-Oct-17 07:01N 35°27' E 139°39'0 0.0
2017-Oct-17 06:31N 35°27' E 139°39'0 0.0
2017-Oct-17 06:00N 35°27' E 139°39'0 0.0
2017-Oct-17 05:30N 35°27' E 139°39'0 0.0
2017-Oct-17 05:01N 35°27' E 139°39'1 1.1
2017-Oct-17 04:31N 35°27' E 139°40'4 8.9
2017-Oct-17 04:01N 35°23' E 139°42'5 9.3
2017-Oct-17 03:30N 35°18' E 139°42'1 3.0
2017-Oct-17 03:00N 35°18' E 139°40'1 1.7
2017-Oct-17 02:30N 35°19' E 139°41'1 2.1
2017-Oct-17 02:01N 35°18' E 139°42'1 2.2
2017-Oct-17 01:31N 35°17' E 139°41'0 0.0
2017-Oct-17 01:01N 35°17' E 139°41'2 4.1
2017-Oct-17 00:31N 35°19' E 139°42'5 9.0
2017-Oct-17 00:01N 35°23' E 139°41'4 7.8
2017-Oct-16 23:31N 35°27' E 139°40'1 1.6
2017-Oct-16 23:01N 35°27' E 139°39'0 0.0
2017-Oct-16 22:30N 35°27' E 139°39'0 0.0
2017-Oct-16 22:00N 35°27' E 139°39'0 0.0
2017-Oct-16 21:31N 35°27' E 139°39'0 0.0
2017-Oct-16 21:01N 35°27' E 139°39'0 0.0
2017-Oct-16 20:31N 35°27' E 139°39'0 0.0
2017-Oct-16 20:01N 35°27' E 139°39'0 0.0
2017-Oct-16 19:30N 35°27' E 139°39'0 0.0
2017-Oct-16 19:01N 35°27' E 139°39'0 0.0
2017-Oct-16 18:31N 35°27' E 139°39'0 0.0
2017-Oct-16 18:01N 35°27' E 139°39'0 0.0
2017-Oct-16 17:30N 35°27' E 139°39'0 0.0
2017-Oct-16 17:00N 35°27' E 139°39'0 0.0
2017-Oct-16 16:30N 35°27' E 139°39'0 0.0
2017-Oct-16 16:01N 35°27' E 139°39'0 0.0
2017-Oct-16 15:31N 35°27' E 139°39'0 0.0
2017-Oct-16 15:01N 35°27' E 139°39'0 0.0
2017-Oct-16 14:00N 35°27' E 139°39'0 0.0
2017-Oct-16 13:31N 35°27' E 139°39'0 0.0
2017-Oct-16 13:01N 35°27' E 139°39'0 0.0
2017-Oct-16 12:31N 35°27' E 139°39'0 0.0
2017-Oct-16 12:01N 35°27' E 139°39'0 0.0
2017-Oct-16 11:31N 35°27' E 139°39'0 0.0
2017-Oct-16 11:01N 35°27' E 139°39'0 0.0
2017-Oct-16 10:31N 35°27' E 139°39'2 3.6
2017-Oct-16 10:01N 35°27' E 139°41'2 4.8
2017-Oct-16 09:31N 35°24' E 139°41'1 1.3
2017-Oct-16 09:00N 35°24' E 139°41'1 2.1
2017-Oct-16 08:31N 35°23' E 139°41'3 5.8
2017-Oct-16 08:00N 35°26' E 139°42'3 5.3
2017-Oct-16 07:30N 35°28' E 139°41'2 3.2
2017-Oct-16 07:01N 35°27' E 139°39'0 0.0
2017-Oct-16 06:30N 35°27' E 139°39'0 0.0
2017-Oct-16 06:01N 35°27' E 139°39'0 0.0
2017-Oct-16 05:31N 35°27' E 139°39'0 0.0
2017-Oct-16 05:01N 35°27' E 139°39'0 0.0
2017-Oct-16 04:31N 35°27' E 139°39'2 4.5
2017-Oct-16 04:00N 35°26' E 139°42'3 6.9
2017-Oct-16 03:31N 35°24' E 139°38'0 0.0
2017-Oct-16 03:01N 35°24' E 139°38'0 0.0
2017-Oct-16 02:30N 35°24' E 139°38'0 0.9
2017-Oct-16 02:01N 35°24' E 139°39'3 6.2
2017-Oct-16 01:30N 35°22' E 139°42'2 3.9
2017-Oct-16 01:00N 35°24' E 139°42'4 7.5
2017-Oct-16 00:31N 35°27' E 139°40'0 0.2
2017-Oct-16 00:01N 35°27' E 139°39'0 0.0
2017-Oct-15 23:31N 35°27' E 139°39'0 0.0
2017-Oct-15 23:01N 35°27' E 139°39'2 3.5
2017-Oct-15 22:31N 35°28' E 139°41'1 1.6
2017-Oct-15 22:00N 35°28' E 139°42'2 3.8
2017-Oct-15 21:30N 35°26' E 139°43'1 1.9
2017-Oct-15 21:01N 35°26' E 139°42'2 4.2
2017-Oct-15 20:31N 35°27' E 139°39'0 0.0
2017-Oct-15 20:01N 35°27' E 139°39'0 0.0
2017-Oct-15 19:30N 35°27' E 139°39'0 0.0
2017-Oct-15 19:01N 35°27' E 139°39'0 0.0
2017-Oct-15 18:31N 35°27' E 139°39'0 0.0
2017-Oct-15 18:01N 35°27' E 139°39'0 0.0
2017-Oct-15 17:30N 35°27' E 139°39'0 0.0
2017-Oct-15 17:01N 35°27' E 139°39'0 0.0
2017-Oct-15 16:31N 35°27' E 139°39'0 0.0
2017-Oct-15 16:01N 35°27' E 139°39'0 0.0
2017-Oct-15 15:31N 35°27' E 139°39'0 0.0
2017-Oct-15 15:01N 35°27' E 139°39'0 0.0
2017-Oct-15 14:00N 35°27' E 139°39'0 0.0
2017-Oct-15 13:30N 35°27' E 139°39'0 0.0
2017-Oct-15 13:00N 35°27' E 139°39'0 0.0
2017-Oct-15 12:31N 35°27' E 139°39'0 0.0
2017-Oct-15 12:01N 35°27' E 139°39'0 0.0
2017-Oct-15 11:31N 35°27' E 139°39'0 0.0
2017-Oct-15 11:00N 35°27' E 139°39'0 0.0
2017-Oct-15 10:31N 35°27' E 139°39'0 0.0
2017-Oct-15 10:01N 35°27' E 139°39'1 2.0
2017-Oct-15 09:31N 35°27' E 139°41'1 1.4
2017-Oct-15 09:01N 35°27' E 139°41'2 3.9
2017-Oct-15 08:31N 35°25' E 139°43'2 3.2
2017-Oct-15 08:01N 35°25' E 139°41'0 0.1
2017-Oct-15 07:31N 35°25' E 139°41'2 3.0
2017-Oct-15 07:01N 35°27' E 139°41'2 3.3
2017-Oct-15 06:31N 35°27' E 139°39'0 0.0
2017-Oct-15 06:01N 35°27' E 139°39'0 0.0
2017-Oct-15 05:31N 35°27' E 139°39'0 0.0
2017-Oct-15 05:01N 35°27' E 139°39'0 0.0
2017-Oct-15 04:31N 35°27' E 139°39'0 0.0
2017-Oct-15 04:01N 35°27' E 139°39'0 0.0
2017-Oct-15 03:30N 35°27' E 139°39'0 0.0
2017-Oct-15 03:00N 35°27' E 139°39'0 0.0
2017-Oct-15 02:30N 35°27' E 139°39'2 4.4
2017-Oct-15 02:01N 35°28' E 139°41'0 0.9
2017-Oct-15 01:30N 35°28' E 139°42'2 3.4
2017-Oct-15 01:01N 35°27' E 139°43'1 2.6
2017-Oct-15 00:30N 35°27' E 139°42'2 3.9
2017-Oct-15 00:01N 35°27' E 139°39'0 0.1
2017-Oct-14 23:31N 35°27' E 139°39'0 0.0
2017-Oct-14 23:01N 35°27' E 139°39'0 0.0
2017-Oct-14 22:31N 35°27' E 139°39'0 0.0
2017-Oct-14 22:01N 35°27' E 139°39'0 0.0
2017-Oct-14 21:31N 35°27' E 139°39'0 0.0
2017-Oct-14 21:01N 35°27' E 139°39'0 0.0
2017-Oct-14 20:31N 35°27' E 139°39'0 0.0
2017-Oct-14 20:01N 35°27' E 139°39'0 0.0
2017-Oct-14 19:30N 35°27' E 139°39'0 0.0
2017-Oct-14 19:01N 35°27' E 139°39'0 0.0
2017-Oct-14 18:30N 35°27' E 139°39'0 0.0
2017-Oct-14 18:00N 35°27' E 139°39'0 0.0
2017-Oct-14 17:30N 35°27' E 139°39'0 0.0
2017-Oct-14 17:01N 35°27' E 139°39'0 0.0
2017-Oct-14 16:30N 35°27' E 139°39'0 0.0
2017-Oct-14 16:01N 35°27' E 139°39'0 0.0
2017-Oct-14 15:31N 35°27' E 139°39'0 0.0
2017-Oct-14 15:01N 35°27' E 139°39'0 0.0
2017-Oct-14 14:30N 35°27' E 139°39'0 0.0
2017-Oct-14 14:00N 35°27' E 139°39'0 0.0
2017-Oct-14 13:31N 35°27' E 139°39'0 0.0
2017-Oct-14 13:01N 35°27' E 139°39'0 0.0
2017-Oct-14 12:30N 35°27' E 139°39'0 0.0
2017-Oct-14 12:01N 35°27' E 139°39'0 0.0
2017-Oct-14 11:30N 35°27' E 139°39'0 0.0
2017-Oct-14 11:01N 35°27' E 139°39'0 0.0
2017-Oct-14 10:31N 35°27' E 139°39'0 0.0
2017-Oct-14 10:01N 35°27' E 139°39'0 0.0
2017-Oct-14 09:31N 35°27' E 139°39'0 0.0
2017-Oct-14 09:00N 35°27' E 139°39'0 0.0
2017-Oct-14 08:31N 35°27' E 139°39'0 0.0
2017-Oct-14 08:00N 35°27' E 139°39'0 0.0
2017-Oct-14 07:31N 35°27' E 139°39'0 0.0
2017-Oct-14 07:01N 35°27' E 139°39'0 0.0
2017-Oct-14 06:31N 35°27' E 139°39'0 0.0
2017-Oct-14 06:01N 35°27' E 139°39'0 0.0
2017-Oct-14 05:31N 35°27' E 139°39'0 0.0
2017-Oct-14 05:01N 35°27' E 139°39'0 0.0
2017-Oct-14 04:31N 35°27' E 139°39'0 0.0
2017-Oct-14 04:01N 35°27' E 139°39'0 0.0
2017-Oct-14 03:31N 35°27' E 139°39'0 0.0
2017-Oct-14 03:01N 35°27' E 139°39'0 0.0
2017-Oct-14 02:31N 35°27' E 139°39'0 0.0
2017-Oct-14 02:01N 35°27' E 139°39'0 0.0
2017-Oct-14 01:31N 35°27' E 139°39'0 0.0
2017-Oct-14 01:01N 35°27' E 139°39'0 0.0
2017-Oct-14 00:31N 35°27' E 139°39'0 0.0
2017-Oct-14 00:01N 35°27' E 139°39'0 0.0
2017-Oct-13 23:31N 35°27' E 139°39'1 1.1
2017-Oct-13 23:01N 35°27' E 139°40'2 3.9
2017-Oct-13 22:31N 35°25' E 139°41'0 0.9
2017-Oct-13 22:01N 35°25' E 139°41'1 1.3
2017-Oct-13 21:31N 35°25' E 139°42'0 0.1
2017-Oct-13 21:01N 35°25' E 139°42'0 0.1
2017-Oct-13 20:31N 35°25' E 139°42'0 0.1
2017-Oct-13 20:00N 35°25' E 139°42'0 0.0
2017-Oct-13 19:31N 35°25' E 139°42'0 0.0
2017-Oct-13 19:01N 35°25' E 139°42'0 0.0
2017-Oct-13 18:31N 35°25' E 139°42'0 0.0
2017-Oct-13 18:00N 35°25' E 139°42'0 0.0
2017-Oct-13 17:31N 35°25' E 139°42'0 0.0
2017-Oct-13 17:01N 35°25' E 139°42'0 0.0
2017-Oct-13 16:31N 35°25' E 139°42'0 0.6
2017-Oct-13 16:00N 35°25' E 139°42'1 2.5
2017-Oct-13 15:31N 35°24' E 139°41'0 0.4
2017-Oct-13 15:01N 35°24' E 139°41'0 0.0
2017-Oct-13 14:31N 35°24' E 139°41'0 0.0
2017-Oct-13 14:01N 35°24' E 139°41'0 0.0
2017-Oct-13 13:31N 35°24' E 139°41'0 0.0
2017-Oct-13 13:01N 35°24' E 139°41'0 0.0
2017-Oct-13 12:31N 35°24' E 139°41'3 5.5
2017-Oct-13 12:01N 35°27' E 139°41'0 0.6
2017-Oct-13 11:30N 35°27' E 139°41'2 3.2
2017-Oct-13 11:01N 35°27' E 139°39'0 0.0
2017-Oct-13 10:31N 35°27' E 139°39'1 1.0
2017-Oct-13 10:01N 35°27' E 139°39'0 0.0
2017-Oct-13 09:31N 35°27' E 139°39'0 0.0
2017-Oct-13 09:01N 35°27' E 139°39'0 0.0
2017-Oct-13 08:31N 35°27' E 139°39'0 0.0
2017-Oct-13 08:01N 35°27' E 139°39'1 2.2
2017-Oct-13 07:31N 35°27' E 139°41'1 2.4
2017-Oct-13 07:01N 35°28' E 139°41'0 0.5
2017-Oct-13 06:31N 35°28' E 139°41'1 1.3
2017-Oct-13 06:00N 35°28' E 139°40'0 0.0
2017-Oct-13 05:30N 35°28' E 139°40'0 0.0
2017-Oct-13 05:00N 35°28' E 139°40'0 0.0
2017-Oct-13 04:31N 35°28' E 139°40'1 1.5
2017-Oct-13 04:01N 35°27' E 139°41'4 7.1
2017-Oct-13 03:31N 35°24' E 139°41'1 1.1
2017-Oct-13 03:01N 35°24' E 139°41'1 1.9
2017-Oct-13 02:31N 35°23' E 139°41'1 1.3
2017-Oct-13 02:01N 35°22' E 139°41'0 0.7
2017-Oct-13 01:30N 35°23' E 139°41'4 7.4
2017-Oct-13 01:01N 35°26' E 139°42'2 3.7
2017-Oct-13 00:31N 35°27' E 139°39'0 0.0
2017-Oct-13 00:01N 35°27' E 139°39'0 0.0
2017-Oct-12 23:30N 35°27' E 139°39'0 0.0
2017-Oct-12 23:01N 35°27' E 139°39'0 0.0
2017-Oct-12 22:31N 35°27' E 139°39'0 0.0
2017-Oct-12 22:01N 35°27' E 139°39'0 0.0
2017-Oct-12 21:31N 35°27' E 139°39'0 0.0
2017-Oct-12 21:01N 35°27' E 139°39'0 0.0
2017-Oct-12 20:31N 35°27' E 139°39'0 0.0
2017-Oct-12 20:01N 35°27' E 139°39'0 0.0
2017-Oct-12 19:31N 35°27' E 139°39'0 0.0
2017-Oct-12 19:01N 35°27' E 139°39'0 0.0
2017-Oct-12 18:30N 35°27' E 139°39'0 0.0
2017-Oct-12 18:01N 35°27' E 139°39'0 0.0
2017-Oct-12 17:31N 35°27' E 139°39'0 0.0
2017-Oct-12 17:01N 35°27' E 139°39'0 0.0
2017-Oct-12 16:31N 35°27' E 139°39'0 0.0
2017-Oct-12 16:01N 35°27' E 139°39'0 0.0
2017-Oct-12 15:31N 35°27' E 139°39'0 0.0
2017-Oct-12 15:01N 35°27' E 139°39'0 0.0
2017-Oct-12 14:31N 35°27' E 139°39'0 0.0
2017-Oct-12 14:01N 35°27' E 139°39'0 0.0
2017-Oct-12 13:31N 35°27' E 139°39'0 0.0
2017-Oct-12 13:01N 35°27' E 139°39'0 0.0
2017-Oct-12 12:31N 35°27' E 139°39'0 0.0
2017-Oct-12 12:01N 35°27' E 139°39'0 0.0
2017-Oct-12 11:31N 35°27' E 139°39'0 0.0
2017-Oct-12 11:01N 35°27' E 139°39'0 0.0
2017-Oct-12 10:31N 35°27' E 139°39'0 0.0
2017-Oct-12 10:00N 35°27' E 139°39'0 0.0
2017-Oct-12 09:31N 35°27' E 139°39'0 0.0
2017-Oct-12 09:01N 35°27' E 139°39'0 0.0
2017-Oct-12 08:30N 35°27' E 139°39'0 0.0
2017-Oct-12 08:00N 35°27' E 139°39'0 0.0
2017-Oct-12 07:31N 35°27' E 139°39'0 0.4
2017-Oct-12 07:01N 35°27' E 139°40'1 1.6
2017-Oct-12 06:31N 35°28' E 139°40'0 0.0
2017-Oct-12 06:00N 35°28' E 139°40'0 0.0
2017-Oct-12 05:31N 35°28' E 139°40'0 0.0
2017-Oct-12 05:01N 35°28' E 139°40'0 0.0
2017-Oct-12 04:31N 35°28' E 139°40'0 0.0
2017-Oct-12 04:01N 35°28' E 139°40'0 0.0
2017-Oct-12 03:31N 35°28' E 139°40'0 0.0
2017-Oct-12 03:01N 35°28' E 139°40'0 0.0
2017-Oct-12 02:31N 35°28' E 139°40'0 0.0
2017-Oct-12 02:01N 35°28' E 139°40'0 0.0
2017-Oct-12 01:31N 35°28' E 139°40'0 0.0
2017-Oct-12 01:01N 35°28' E 139°40'0 0.0
2017-Oct-12 00:16N 35°28' E 139°40'0 0.3
2017-Oct-11 23:12N 35°27' E 139°40'1 3.1
2017-Oct-11 23:00N 35°27' E 139°41'0 0.6
2017-Oct-11 22:26N 35°27' E 139°41'0 0.0
2017-Oct-10 23:46N 35°28' E 139°40'0 0.0
2017-Oct-10 23:28N 35°28' E 139°40'0 0.0
2017-Oct-10 22:59N 35°28' E 139°40'1 1.1
2017-Oct-10 22:24N 35°27' E 139°41'0 0.3
2017-Oct-10 20:56N 35°27' E 139°41'1 0.1
2017-Oct-10 11:05N 35°27' E 139°40'2 9.9
2017-Oct-10 10:53N 35°26' E 139°42'2 5.5
2017-Oct-10 10:30N 35°24' E 139°40'0 0.8
2017-Oct-10 09:59N 35°24' E 139°41'0 0.1
2017-Oct-10 09:27N 35°24' E 139°41'3 3.2
2017-Oct-10 08:29N 35°27' E 139°41'1 1.1
2017-Oct-10 07:29N 35°27' E 139°39'0 0.0
2017-Oct-10 07:01N 35°27' E 139°39'0 0.0
2017-Oct-10 06:31N 35°27' E 139°39'0 0.0
2017-Oct-10 06:00N 35°27' E 139°39'0 0.0
2017-Oct-10 05:30N 35°27' E 139°39'0 0.0
2017-Oct-10 05:01N 35°27' E 139°39'0 0.0
2017-Oct-10 04:30N 35°27' E 139°39'0 0.0
2017-Oct-10 04:01N 35°27' E 139°39'0 0.0
2017-Oct-10 03:30N 35°27' E 139°39'4 7.4
2017-Oct-10 03:01N 35°29' E 139°43'3 5.8
2017-Oct-10 02:30N 35°31' E 139°46'1 1.4
2017-Oct-10 02:00N 35°30' E 139°46'  
Track history (hours):
 
Tides and Currents Weather Stations Pressure Air Temp Water Temp Dewpoint Dewpoint Depression Visibility Wind Speed Wind Dir Waves Ship Positions

Karatsumaru

Last reported at 2017-Oct-20 01:31 UTC. Time now 2017-Oct-20 01:33 UTC.
Position N 35°28' E 139°41'.

Length 33 m; draft 3.6 m.

Type: Tug. MMSI: 431000942.

Date/timePositionNaut miles runAvg speedWind from/ knotsBaromVisibWave heightAir tempDewpointWater temp
2017-Oct-20 01:31N 35°28' E 139°41'0 0.0
2017-Oct-20 01:01N 35°28' E 139°41'0 0.0
2017-Oct-20 00:31N 35°28' E 139°41'2 4.1
2017-Oct-20 00:01N 35°26' E 139°42'2 4.0
2017-Oct-19 23:30N 35°24' E 139°41'0 0.2
2017-Oct-19 23:01N 35°24' E 139°41'1 1.5
2017-Oct-19 22:30N 35°23' E 139°41'1 2.4
2017-Oct-19 22:01N 35°22' E 139°41'4 8.2
2017-Oct-19 21:31N 35°26' E 139°42'2 3.8
2017-Oct-19 21:01N 35°27' E 139°39'0 0.0
2017-Oct-19 20:31N 35°27' E 139°39'0 0.0
2017-Oct-19 20:00N 35°27' E 139°39'0 0.0
2017-Oct-19 19:31N 35°27' E 139°39'0 0.0
2017-Oct-19 19:01N 35°27' E 139°39'0 0.0
2017-Oct-19 18:31N 35°27' E 139°39'0 0.0
2017-Oct-19 18:01N 35°27' E 139°39'0 0.0
2017-Oct-19 17:31N 35°27' E 139°39'0 0.0
2017-Oct-19 17:01N 35°27' E 139°39'0 0.0
2017-Oct-19 16:31N 35°27' E 139°39'0 0.0
2017-Oct-19 16:00N 35°27' E 139°39'0 0.0
2017-Oct-19 15:30N 35°27' E 139°39'0 0.0
2017-Oct-19 15:00N 35°27' E 139°39'0 0.0
2017-Oct-19 14:31N 35°27' E 139°39'0 0.0
2017-Oct-19 14:01N 35°27' E 139°39'0 0.0
2017-Oct-19 13:31N 35°27' E 139°39'0 0.0
2017-Oct-19 13:01N 35°27' E 139°39'0 0.0
2017-Oct-19 12:31N 35°27' E 139°39'0 0.0
2017-Oct-19 12:01N 35°27' E 139°39'0 0.0
2017-Oct-19 11:31N 35°27' E 139°39'0 0.0
2017-Oct-19 11:01N 35°27' E 139°39'0 0.0
2017-Oct-19 10:31N 35°27' E 139°39'0 0.0
2017-Oct-19 10:01N 35°27' E 139°39'0 0.0
2017-Oct-19 09:31N 35°27' E 139°39'0 0.0
2017-Oct-19 09:00N 35°27' E 139°39'0 0.0
2017-Oct-19 08:30N 35°27' E 139°39'0 0.0
2017-Oct-19 08:01N 35°27' E 139°39'0 0.0
2017-Oct-19 07:31N 35°27' E 139°39'0 0.0
2017-Oct-19 07:01N 35°27' E 139°39'0 0.0
2017-Oct-19 06:31N 35°27' E 139°39'0 0.0
2017-Oct-19 06:01N 35°27' E 139°39'0 0.0
2017-Oct-19 05:31N 35°27' E 139°39'0 0.0
2017-Oct-19 05:00N 35°27' E 139°39'0 0.0
2017-Oct-19 04:31N 35°27' E 139°39'0 0.0
2017-Oct-19 04:01N 35°27' E 139°39'0 0.1
2017-Oct-19 03:30N 35°27' E 139°39'0 0.0
2017-Oct-19 03:01N 35°27' E 139°39'1 2.7
2017-Oct-19 02:31N 35°27' E 139°41'2 3.7
2017-Oct-19 01:59N 35°28' E 139°43'0 0.0
2017-Oct-19 01:30N 35°28' E 139°43'0 0.0
2017-Oct-19 01:00N 35°28' E 139°43'0 0.6
2017-Oct-19 00:30N 35°27' E 139°43'2 4.3
2017-Oct-19 00:00N 35°26' E 139°45'2 3.5
2017-Oct-18 23:30N 35°27' E 139°43'3 5.9
2017-Oct-18 23:00N 35°27' E 139°39'0 0.0
2017-Oct-18 22:30N 35°27' E 139°39'0 0.0
2017-Oct-18 22:01N 35°27' E 139°39'0 0.0
2017-Oct-18 21:31N 35°27' E 139°39'0 0.0
2017-Oct-18 21:01N 35°27' E 139°39'0 0.0
2017-Oct-18 20:31N 35°27' E 139°39'0 0.0
2017-Oct-18 20:00N 35°27' E 139°39'0 0.0
2017-Oct-18 19:31N 35°27' E 139°39'0 0.0
2017-Oct-18 19:00N 35°27' E 139°39'0 0.0
2017-Oct-18 18:31N 35°27' E 139°39'0 0.0
2017-Oct-18 18:00N 35°27' E 139°39'0 0.0
2017-Oct-18 17:31N 35°27' E 139°39'0 0.0
2017-Oct-18 17:01N 35°27' E 139°39'0 0.0
2017-Oct-18 16:31N 35°27' E 139°39'0 0.0
2017-Oct-18 16:01N 35°27' E 139°39'0 0.0
2017-Oct-18 15:31N 35°27' E 139°39'0 0.0
2017-Oct-18 15:01N 35°27' E 139°39'0 0.0
2017-Oct-18 14:01N 35°27' E 139°39'0 0.0
2017-Oct-18 13:31N 35°27' E 139°39'0 0.0
2017-Oct-18 13:01N 35°27' E 139°39'0 0.0
2017-Oct-18 12:30N 35°27' E 139°39'0 0.0
2017-Oct-18 12:01N 35°27' E 139°39'0 0.0
2017-Oct-18 11:31N 35°27' E 139°39'0 0.0
2017-Oct-18 11:01N 35°27' E 139°39'0 0.0
2017-Oct-18 10:31N 35°27' E 139°39'0 0.0
2017-Oct-18 10:01N 35°27' E 139°39'0 0.0
2017-Oct-18 09:31N 35°27' E 139°39'0 0.0
2017-Oct-18 09:01N 35°27' E 139°39'0 0.0
2017-Oct-18 08:30N 35°27' E 139°39'0 0.0
2017-Oct-18 08:00N 35°27' E 139°39'0 0.0
2017-Oct-18 07:31N 35°27' E 139°39'0 0.0
2017-Oct-18 07:01N 35°27' E 139°39'0 0.0
2017-Oct-18 06:31N 35°27' E 139°39'0 0.0
2017-Oct-18 06:01N 35°27' E 139°39'0 0.0
2017-Oct-18 05:31N 35°27' E 139°39'0 0.0
2017-Oct-18 05:01N 35°27' E 139°39'0 0.0
2017-Oct-18 04:31N 35°27' E 139°39'1 2.1
2017-Oct-18 04:01N 35°28' E 139°40'0 0.0
2017-Oct-18 03:31N 35°28' E 139°40'0 0.0
2017-Oct-18 03:00N 35°28' E 139°40'0 0.0
2017-Oct-18 02:31N 35°28' E 139°40'0 0.0
2017-Oct-18 02:01N 35°28' E 139°40'0 0.0
2017-Oct-18 01:31N 35°28' E 139°40'0 0.0
2017-Oct-18 01:01N 35°28' E 139°40'0 0.0
2017-Oct-18 00:31N 35°28' E 139°40'0 0.0
2017-Oct-18 00:00N 35°28' E 139°40'0 0.1
2017-Oct-17 23:31N 35°28' E 139°40'4 8.6
2017-Oct-17 23:00N 35°29' E 139°46'2 4.7
2017-Oct-17 22:30N 35°31' E 139°46'2 4.5
2017-Oct-17 22:01N 35°30' E 139°44'4 8.3
2017-Oct-17 21:31N 35°27' E 139°40'0 0.4
2017-Oct-17 21:01N 35°27' E 139°39'0 0.0
2017-Oct-17 20:31N 35°27' E 139°39'0 0.0
2017-Oct-17 20:01N 35°27' E 139°39'0 0.0
2017-Oct-17 19:31N 35°27' E 139°39'0 0.0
2017-Oct-17 19:01N 35°27' E 139°39'0 0.0
2017-Oct-17 18:30N 35°27' E 139°39'0 0.0
2017-Oct-17 18:01N 35°27' E 139°39'0 0.0
2017-Oct-17 17:31N 35°27' E 139°39'0 0.0
2017-Oct-17 17:01N 35°27' E 139°39'0 0.0
2017-Oct-17 16:30N 35°27' E 139°39'0 0.0
2017-Oct-17 16:00N 35°27' E 139°39'0 0.0
2017-Oct-17 15:31N 35°27' E 139°39'0 0.0
2017-Oct-17 15:00N 35°27' E 139°39'0 0.0
2017-Oct-17 14:30N 35°27' E 139°39'0 0.0
2017-Oct-17 14:01N 35°27' E 139°39'0 0.0
2017-Oct-17 13:31N 35°27' E 139°39'0 0.0
2017-Oct-17 13:00N 35°27' E 139°39'0 0.0
2017-Oct-17 12:31N 35°27' E 139°39'0 0.0
2017-Oct-17 12:01N 35°27' E 139°39'0 0.0
2017-Oct-17 11:31N 35°27' E 139°39'0 0.0
2017-Oct-17 11:01N 35°27' E 139°39'0 0.0
2017-Oct-17 10:31N 35°27' E 139°39'0 0.0
2017-Oct-17 10:01N 35°27' E 139°39'0 0.0
2017-Oct-17 09:31N 35°27' E 139°39'0 0.0
2017-Oct-17 09:01N 35°27' E 139°39'0 0.0
2017-Oct-17 08:31N 35°27' E 139°39'0 0.0
2017-Oct-17 08:01N 35°27' E 139°39'0 0.0
2017-Oct-17 07:31N 35°27' E 139°39'0 0.0
2017-Oct-17 07:01N 35°27' E 139°39'0 0.0
2017-Oct-17 06:31N 35°27' E 139°39'0 0.0
2017-Oct-17 06:00N 35°27' E 139°39'0 0.0
2017-Oct-17 05:30N 35°27' E 139°39'0 0.0
2017-Oct-17 05:01N 35°27' E 139°39'1 1.1
2017-Oct-17 04:31N 35°27' E 139°40'4 8.9
2017-Oct-17 04:01N 35°23' E 139°42'5 9.3
2017-Oct-17 03:30N 35°18' E 139°42'1 3.0
2017-Oct-17 03:00N 35°18' E 139°40'1 1.7
2017-Oct-17 02:30N 35°19' E 139°41'1 2.1
2017-Oct-17 02:01N 35°18' E 139°42'1 2.2
2017-Oct-17 01:31N 35°17' E 139°41'0 0.0
2017-Oct-17 01:01N 35°17' E 139°41'2 4.1
2017-Oct-17 00:31N 35°19' E 139°42'5 9.0
2017-Oct-17 00:01N 35°23' E 139°41'4 7.8
2017-Oct-16 23:31N 35°27' E 139°40'1 1.6
2017-Oct-16 23:01N 35°27' E 139°39'0 0.0
2017-Oct-16 22:30N 35°27' E 139°39'0 0.0
2017-Oct-16 22:00N 35°27' E 139°39'0 0.0
2017-Oct-16 21:31N 35°27' E 139°39'0 0.0
2017-Oct-16 21:01N 35°27' E 139°39'0 0.0
2017-Oct-16 20:31N 35°27' E 139°39'0 0.0
2017-Oct-16 20:01N 35°27' E 139°39'0 0.0
2017-Oct-16 19:30N 35°27' E 139°39'0 0.0
2017-Oct-16 19:01N 35°27' E 139°39'0 0.0
2017-Oct-16 18:31N 35°27' E 139°39'0 0.0
2017-Oct-16 18:01N 35°27' E 139°39'0 0.0
2017-Oct-16 17:30N 35°27' E 139°39'0 0.0
2017-Oct-16 17:00N 35°27' E 139°39'0 0.0
2017-Oct-16 16:30N 35°27' E 139°39'0 0.0
2017-Oct-16 16:01N 35°27' E 139°39'0 0.0
2017-Oct-16 15:31N 35°27' E 139°39'0 0.0
2017-Oct-16 15:01N 35°27' E 139°39'0 0.0
2017-Oct-16 14:00N 35°27' E 139°39'0 0.0
2017-Oct-16 13:31N 35°27' E 139°39'0 0.0
2017-Oct-16 13:01N 35°27' E 139°39'0 0.0
2017-Oct-16 12:31N 35°27' E 139°39'0 0.0
2017-Oct-16 12:01N 35°27' E 139°39'0 0.0
2017-Oct-16 11:31N 35°27' E 139°39'0 0.0
2017-Oct-16 11:01N 35°27' E 139°39'0 0.0
2017-Oct-16 10:31N 35°27' E 139°39'2 3.6
2017-Oct-16 10:01N 35°27' E 139°41'2 4.8
2017-Oct-16 09:31N 35°24' E 139°41'1 1.3
2017-Oct-16 09:00N 35°24' E 139°41'1 2.1
2017-Oct-16 08:31N 35°23' E 139°41'3 5.8
2017-Oct-16 08:00N 35°26' E 139°42'3 5.3
2017-Oct-16 07:30N 35°28' E 139°41'2 3.2
2017-Oct-16 07:01N 35°27' E 139°39'0 0.0
2017-Oct-16 06:30N 35°27' E 139°39'0 0.0
2017-Oct-16 06:01N 35°27' E 139°39'0 0.0
2017-Oct-16 05:31N 35°27' E 139°39'0 0.0
2017-Oct-16 05:01N 35°27' E 139°39'0 0.0
2017-Oct-16 04:31N 35°27' E 139°39'2 4.5
2017-Oct-16 04:00N 35°26' E 139°42'3 6.9
2017-Oct-16 03:31N 35°24' E 139°38'0 0.0
2017-Oct-16 03:01N 35°24' E 139°38'0 0.0
2017-Oct-16 02:30N 35°24' E 139°38'0 0.9
2017-Oct-16 02:01N 35°24' E 139°39'3 6.2
2017-Oct-16 01:30N 35°22' E 139°42'2 3.9
2017-Oct-16 01:00N 35°24' E 139°42'4 7.5
2017-Oct-16 00:31N 35°27' E 139°40'0 0.2
2017-Oct-16 00:01N 35°27' E 139°39'0 0.0
2017-Oct-15 23:31N 35°27' E 139°39'0 0.0
2017-Oct-15 23:01N 35°27' E 139°39'2 3.5
2017-Oct-15 22:31N 35°28' E 139°41'1 1.6
2017-Oct-15 22:00N 35°28' E 139°42'2 3.8
2017-Oct-15 21:30N 35°26' E 139°43'1 1.9
2017-Oct-15 21:01N 35°26' E 139°42'2 4.2
2017-Oct-15 20:31N 35°27' E 139°39'0 0.0
2017-Oct-15 20:01N 35°27' E 139°39'0 0.0
2017-Oct-15 19:30N 35°27' E 139°39'0 0.0
2017-Oct-15 19:01N 35°27' E 139°39'0 0.0
2017-Oct-15 18:31N 35°27' E 139°39'0 0.0
2017-Oct-15 18:01N 35°27' E 139°39'0 0.0
2017-Oct-15 17:30N 35°27' E 139°39'0 0.0
2017-Oct-15 17:01N 35°27' E 139°39'0 0.0
2017-Oct-15 16:31N 35°27' E 139°39'0 0.0
2017-Oct-15 16:01N 35°27' E 139°39'0 0.0
2017-Oct-15 15:31N 35°27' E 139°39'0 0.0
2017-Oct-15 15:01N 35°27' E 139°39'0 0.0
2017-Oct-15 14:00N 35°27' E 139°39'0 0.0
2017-Oct-15 13:30N 35°27' E 139°39'0 0.0
2017-Oct-15 13:00N 35°27' E 139°39'0 0.0
2017-Oct-15 12:31N 35°27' E 139°39'0 0.0
2017-Oct-15 12:01N 35°27' E 139°39'0 0.0
2017-Oct-15 11:31N 35°27' E 139°39'0 0.0
2017-Oct-15 11:00N 35°27' E 139°39'0 0.0
2017-Oct-15 10:31N 35°27' E 139°39'0 0.0
2017-Oct-15 10:01N 35°27' E 139°39'1 2.0
2017-Oct-15 09:31N 35°27' E 139°41'1 1.4
2017-Oct-15 09:01N 35°27' E 139°41'2 3.9
2017-Oct-15 08:31N 35°25' E 139°43'2 3.2
2017-Oct-15 08:01N 35°25' E 139°41'0 0.1
2017-Oct-15 07:31N 35°25' E 139°41'2 3.0
2017-Oct-15 07:01N 35°27' E 139°41'2 3.3
2017-Oct-15 06:31N 35°27' E 139°39'0 0.0
2017-Oct-15 06:01N 35°27' E 139°39'0 0.0
2017-Oct-15 05:31N 35°27' E 139°39'0 0.0
2017-Oct-15 05:01N 35°27' E 139°39'0 0.0
2017-Oct-15 04:31N 35°27' E 139°39'0 0.0
2017-Oct-15 04:01N 35°27' E 139°39'0 0.0
2017-Oct-15 03:30N 35°27' E 139°39'0 0.0
2017-Oct-15 03:00N 35°27' E 139°39'0 0.0
2017-Oct-15 02:30N 35°27' E 139°39'2 4.4
2017-Oct-15 02:01N 35°28' E 139°41'0 0.9
2017-Oct-15 01:30N 35°28' E 139°42'2 3.4
2017-Oct-15 01:01N 35°27' E 139°43'1 2.6
2017-Oct-15 00:30N 35°27' E 139°42'2 3.9
2017-Oct-15 00:01N 35°27' E 139°39'0 0.1
2017-Oct-14 23:31N 35°27' E 139°39'0 0.0
2017-Oct-14 23:01N 35°27' E 139°39'0 0.0
2017-Oct-14 22:31N 35°27' E 139°39'0 0.0
2017-Oct-14 22:01N 35°27' E 139°39'0 0.0
2017-Oct-14 21:31N 35°27' E 139°39'0 0.0
2017-Oct-14 21:01N 35°27' E 139°39'0 0.0
2017-Oct-14 20:31N 35°27' E 139°39'0 0.0
2017-Oct-14 20:01N 35°27' E 139°39'0 0.0
2017-Oct-14 19:30N 35°27' E 139°39'0 0.0
2017-Oct-14 19:01N 35°27' E 139°39'0 0.0
2017-Oct-14 18:30N 35°27' E 139°39'0 0.0
2017-Oct-14 18:00N 35°27' E 139°39'0 0.0
2017-Oct-14 17:30N 35°27' E 139°39'0 0.0
2017-Oct-14 17:01N 35°27' E 139°39'0 0.0
2017-Oct-14 16:30N 35°27' E 139°39'0 0.0
2017-Oct-14 16:01N 35°27' E 139°39'0 0.0
2017-Oct-14 15:31N 35°27' E 139°39'0 0.0
2017-Oct-14 15:01N 35°27' E 139°39'0 0.0
2017-Oct-14 14:30N 35°27' E 139°39'0 0.0
2017-Oct-14 14:00N 35°27' E 139°39'0 0.0
2017-Oct-14 13:31N 35°27' E 139°39'0 0.0
2017-Oct-14 13:01N 35°27' E 139°39'0 0.0
2017-Oct-14 12:30N 35°27' E 139°39'0 0.0
2017-Oct-14 12:01N 35°27' E 139°39'0 0.0
2017-Oct-14 11:30N 35°27' E 139°39'0 0.0
2017-Oct-14 11:01N 35°27' E 139°39'0 0.0
2017-Oct-14 10:31N 35°27' E 139°39'0 0.0
2017-Oct-14 10:01N 35°27' E 139°39'0 0.0
2017-Oct-14 09:31N 35°27' E 139°39'0 0.0
2017-Oct-14 09:00N 35°27' E 139°39'0 0.0
2017-Oct-14 08:31N 35°27' E 139°39'0 0.0
2017-Oct-14 08:00N 35°27' E 139°39'0 0.0
2017-Oct-14 07:31N 35°27' E 139°39'0 0.0
2017-Oct-14 07:01N 35°27' E 139°39'0 0.0
2017-Oct-14 06:31N 35°27' E 139°39'0 0.0
2017-Oct-14 06:01N 35°27' E 139°39'0 0.0
2017-Oct-14 05:31N 35°27' E 139°39'0 0.0
2017-Oct-14 05:01N 35°27' E 139°39'0 0.0
2017-Oct-14 04:31N 35°27' E 139°39'0 0.0
2017-Oct-14 04:01N 35°27' E 139°39'0 0.0
2017-Oct-14 03:31N 35°27' E 139°39'0 0.0
2017-Oct-14 03:01N 35°27' E 139°39'0 0.0
2017-Oct-14 02:31N 35°27' E 139°39'0 0.0
2017-Oct-14 02:01N 35°27' E 139°39'0 0.0
2017-Oct-14 01:31N 35°27' E 139°39'0 0.0
2017-Oct-14 01:01N 35°27' E 139°39'0 0.0
2017-Oct-14 00:31N 35°27' E 139°39'0 0.0
2017-Oct-14 00:01N 35°27' E 139°39'0 0.0
2017-Oct-13 23:31N 35°27' E 139°39'1 1.1
2017-Oct-13 23:01N 35°27' E 139°40'2 3.9
2017-Oct-13 22:31N 35°25' E 139°41'0 0.9
2017-Oct-13 22:01N 35°25' E 139°41'1 1.3
2017-Oct-13 21:31N 35°25' E 139°42'0 0.1
2017-Oct-13 21:01N 35°25' E 139°42'0 0.1
2017-Oct-13 20:31N 35°25' E 139°42'0 0.1
2017-Oct-13 20:00N 35°25' E 139°42'0 0.0
2017-Oct-13 19:31N 35°25' E 139°42'0 0.0
2017-Oct-13 19:01N 35°25' E 139°42'0 0.0
2017-Oct-13 18:31N 35°25' E 139°42'0 0.0
2017-Oct-13 18:00N 35°25' E 139°42'0 0.0
2017-Oct-13 17:31N 35°25' E 139°42'0 0.0
2017-Oct-13 17:01N 35°25' E 139°42'0 0.0
2017-Oct-13 16:31N 35°25' E 139°42'0 0.6
2017-Oct-13 16:00N 35°25' E 139°42'1 2.5
2017-Oct-13 15:31N 35°24' E 139°41'0 0.4
2017-Oct-13 15:01N 35°24' E 139°41'0 0.0
2017-Oct-13 14:31N 35°24' E 139°41'0 0.0
2017-Oct-13 14:01N 35°24' E 139°41'0 0.0
2017-Oct-13 13:31N 35°24' E 139°41'0 0.0
2017-Oct-13 13:01N 35°24' E 139°41'0 0.0
2017-Oct-13 12:31N 35°24' E 139°41'3 5.5
2017-Oct-13 12:01N 35°27' E 139°41'0 0.6
2017-Oct-13 11:30N 35°27' E 139°41'2 3.2
2017-Oct-13 11:01N 35°27' E 139°39'0 0.0
2017-Oct-13 10:31N 35°27' E 139°39'1 1.0
2017-Oct-13 10:01N 35°27' E 139°39'0 0.0
2017-Oct-13 09:31N 35°27' E 139°39'0 0.0
2017-Oct-13 09:01N 35°27' E 139°39'0 0.0
2017-Oct-13 08:31N 35°27' E 139°39'0 0.0
2017-Oct-13 08:01N 35°27' E 139°39'1 2.2
2017-Oct-13 07:31N 35°27' E 139°41'1 2.4
2017-Oct-13 07:01N 35°28' E 139°41'0 0.5
2017-Oct-13 06:31N 35°28' E 139°41'1 1.3
2017-Oct-13 06:00N 35°28' E 139°40'0 0.0
2017-Oct-13 05:30N 35°28' E 139°40'0 0.0
2017-Oct-13 05:00N 35°28' E 139°40'0 0.0
2017-Oct-13 04:31N 35°28' E 139°40'1 1.5
2017-Oct-13 04:01N 35°27' E 139°41'4 7.1
2017-Oct-13 03:31N 35°24' E 139°41'1 1.1
2017-Oct-13 03:01N 35°24' E 139°41'1 1.9
2017-Oct-13 02:31N 35°23' E 139°41'1 1.3
2017-Oct-13 02:01N 35°22' E 139°41'0 0.7
2017-Oct-13 01:30N 35°23' E 139°41'4 7.4
2017-Oct-13 01:01N 35°26' E 139°42'2 3.7
2017-Oct-13 00:31N 35°27' E 139°39'0 0.0
2017-Oct-13 00:01N 35°27' E 139°39'0 0.0
2017-Oct-12 23:30N 35°27' E 139°39'0 0.0
2017-Oct-12 23:01N 35°27' E 139°39'0 0.0
2017-Oct-12 22:31N 35°27' E 139°39'0 0.0
2017-Oct-12 22:01N 35°27' E 139°39'0 0.0
2017-Oct-12 21:31N 35°27' E 139°39'0 0.0
2017-Oct-12 21:01N 35°27' E 139°39'0 0.0
2017-Oct-12 20:31N 35°27' E 139°39'0 0.0
2017-Oct-12 20:01N 35°27' E 139°39'0 0.0
2017-Oct-12 19:31N 35°27' E 139°39'0 0.0
2017-Oct-12 19:01N 35°27' E 139°39'0 0.0
2017-Oct-12 18:30N 35°27' E 139°39'0 0.0
2017-Oct-12 18:01N 35°27' E 139°39'0 0.0
2017-Oct-12 17:31N 35°27' E 139°39'0 0.0
2017-Oct-12 17:01N 35°27' E 139°39'0 0.0
2017-Oct-12 16:31N 35°27' E 139°39'0 0.0
2017-Oct-12 16:01N 35°27' E 139°39'0 0.0
2017-Oct-12 15:31N 35°27' E 139°39'0 0.0
2017-Oct-12 15:01N 35°27' E 139°39'0 0.0
2017-Oct-12 14:31N 35°27' E 139°39'0 0.0
2017-Oct-12 14:01N 35°27' E 139°39'0 0.0
2017-Oct-12 13:31N 35°27' E 139°39'0 0.0
2017-Oct-12 13:01N 35°27' E 139°39'0 0.0
2017-Oct-12 12:31N 35°27' E 139°39'0 0.0
2017-Oct-12 12:01N 35°27' E 139°39'0 0.0
2017-Oct-12 11:31N 35°27' E 139°39'0 0.0
2017-Oct-12 11:01N 35°27' E 139°39'0 0.0
2017-Oct-12 10:31N 35°27' E 139°39'0 0.0
2017-Oct-12 10:00N 35°27' E 139°39'0 0.0
2017-Oct-12 09:31N 35°27' E 139°39'0 0.0
2017-Oct-12 09:01N 35°27' E 139°39'0 0.0
2017-Oct-12 08:30N 35°27' E 139°39'0 0.0
2017-Oct-12 08:00N 35°27' E 139°39'0 0.0
2017-Oct-12 07:31N 35°27' E 139°39'0 0.4
2017-Oct-12 07:01N 35°27' E 139°40'1 1.6
2017-Oct-12 06:31N 35°28' E 139°40'0 0.0
2017-Oct-12 06:00N 35°28' E 139°40'0 0.0
2017-Oct-12 05:31N 35°28' E 139°40'0 0.0
2017-Oct-12 05:01N 35°28' E 139°40'0 0.0
2017-Oct-12 04:31N 35°28' E 139°40'0 0.0
2017-Oct-12 04:01N 35°28' E 139°40'0 0.0
2017-Oct-12 03:31N 35°28' E 139°40'0 0.0
2017-Oct-12 03:01N 35°28' E 139°40'0 0.0
2017-Oct-12 02:31N 35°28' E 139°40'0 0.0
2017-Oct-12 02:01N 35°28' E 139°40'0 0.0
2017-Oct-12 01:31N 35°28' E 139°40'0 0.0
2017-Oct-12 01:01N 35°28' E 139°40'0 0.0
2017-Oct-12 00:16N 35°28' E 139°40'0 0.3
2017-Oct-11 23:12N 35°27' E 139°40'1 3.1
2017-Oct-11 23:00N 35°27' E 139°41'0 0.6
2017-Oct-11 22:26N 35°27' E 139°41'0 0.0
2017-Oct-10 23:46N 35°28' E 139°40'0 0.0
2017-Oct-10 23:28N 35°28' E 139°40'0 0.0
2017-Oct-10 22:59N 35°28' E 139°40'1 1.1
2017-Oct-10 22:24N 35°27' E 139°41'0 0.3
2017-Oct-10 20:56N 35°27' E 139°41'1 0.1
2017-Oct-10 11:05N 35°27' E 139°40'2 9.9
2017-Oct-10 10:53N 35°26' E 139°42'2 5.5
2017-Oct-10 10:30N 35°24' E 139°40'0 0.8
2017-Oct-10 09:59N 35°24' E 139°41'0 0.1
2017-Oct-10 09:27N 35°24' E 139°41'3 3.2
2017-Oct-10 08:29N 35°27' E 139°41'1 1.1
2017-Oct-10 07:29N 35°27' E 139°39'0 0.0
2017-Oct-10 07:01N 35°27' E 139°39'0 0.0
2017-Oct-10 06:31N 35°27' E 139°39'0 0.0
2017-Oct-10 06:00N 35°27' E 139°39'0 0.0
2017-Oct-10 05:30N 35°27' E 139°39'0 0.0
2017-Oct-10 05:01N 35°27' E 139°39'0 0.0
2017-Oct-10 04:30N 35°27' E 139°39'0 0.0
2017-Oct-10 04:01N 35°27' E 139°39'0 0.0
2017-Oct-10 03:30N 35°27' E 139°39'4 7.4
2017-Oct-10 03:01N 35°29' E 139°43'3 5.8
2017-Oct-10 02:30N 35°31' E 139°46'1 1.4
2017-Oct-10 02:00N 35°30' E 139°46'  

Dump ship's entire track history